createdAt,value
2022-08-26T00:01:48.194Z,100980.09
2022-08-26T00:07:16.464Z,100975.29
2022-08-26T00:12:45.155Z,100967.05
2022-08-26T00:17:57.946Z,100972.30
2022-08-26T00:23:09.177Z,100973.63
2022-08-26T00:28:28.338Z,100966.98
2022-08-26T00:33:44.131Z,100961.32
2022-08-26T00:38:56.591Z,100952.83
2022-08-26T00:44:07.179Z,100944.05
2022-08-26T00:49:37.414Z,100949.09
2022-08-26T00:54:54.308Z,100946.74
2022-08-26T01:00:12.684Z,100944.16
2022-08-26T01:05:22.456Z,100946.03
2022-08-26T01:10:39.856Z,100946.30
2022-08-26T01:15:58.937Z,100943.52
2022-08-26T01:21:17.192Z,100940.77
2022-08-26T01:26:32.819Z,100939.83
2022-08-26T01:31:46.835Z,100947.31
2022-08-26T01:37:08.593Z,100948.25
2022-08-26T01:42:33.420Z,100944.09
2022-08-26T01:47:58.395Z,100946.98
2022-08-26T01:53:14.284Z,100950.27
2022-08-26T01:58:47.505Z,100942.48
2022-08-26T02:04:10.288Z,100938.83
2022-08-26T02:09:27.592Z,100934.40
2022-08-26T02:14:43.622Z,100928.98
2022-08-26T02:20:02.022Z,100924.42
2022-08-26T02:25:26.733Z,100925.45
2022-08-26T02:30:38.258Z,100923.06
2022-08-26T02:35:46.762Z,100922.83
2022-08-26T02:41:06.234Z,100925.64
2022-08-26T02:46:21.545Z,100920.40
2022-08-26T02:51:50.140Z,100917.23
2022-08-26T02:56:59.208Z,100917.45
2022-08-26T03:02:08.174Z,100910.56
2022-08-26T03:07:20.015Z,100912.05
2022-08-26T03:12:32.949Z,100902.59
2022-08-26T03:17:52.436Z,100904.23
2022-08-26T03:23:03.918Z,100901.88
2022-08-26T03:28:21.817Z,100904.00
2022-08-26T03:33:34.120Z,100905.20
2022-08-26T03:38:47.585Z,100903.04
2022-08-26T03:44:01.520Z,100905.33
2022-08-26T03:49:30.016Z,100910.55
2022-08-26T03:54:38.289Z,100904.23
2022-08-26T03:59:48.006Z,100904.17
2022-08-26T04:05:17.998Z,100910.54
2022-08-26T04:10:29.667Z,100912.02
2022-08-26T04:15:39.578Z,100909.25
2022-08-26T04:20:54.738Z,100908.56
2022-08-26T04:26:07.866Z,100909.92
2022-08-26T04:31:21.198Z,100909.72
2022-08-26T04:36:29.204Z,100911.40
2022-08-26T04:41:40.082Z,100910.13
2022-08-26T04:46:52.486Z,100910.01
2022-08-26T04:52:03.352Z,100910.58
2022-08-26T04:57:15.271Z,100918.91
2022-08-26T05:02:25.838Z,100916.89
2022-08-26T05:07:38.415Z,100912.70
2022-08-26T05:12:55.984Z,100918.14
2022-08-26T05:18:14.026Z,100921.19
2022-08-26T05:23:32.202Z,100919.95
2022-08-26T05:28:42.748Z,100920.45
2022-08-26T05:33:53.313Z,100925.41
2022-08-26T05:39:10.498Z,100921.45
2022-08-26T05:44:21.445Z,100919.19
2022-08-26T05:49:33.136Z,100920.14
2022-08-26T05:55:01.737Z,100910.52
2022-08-26T06:00:18.471Z,100909.27
2022-08-26T06:05:42.749Z,100914.67
2022-08-26T06:10:57.427Z,100917.43
2022-08-26T06:16:09.071Z,100913.79
2022-08-26T06:21:24.524Z,100908.42
2022-08-26T06:26:50.294Z,100909.87
2022-08-26T06:32:07.235Z,100914.04
2022-08-26T06:37:19.147Z,100912.11
2022-08-26T06:42:28.570Z,100912.55
2022-08-26T06:47:39.044Z,100912.13
2022-08-26T06:52:53.207Z,100916.38
2022-08-26T06:58:07.813Z,100914.33
2022-08-26T07:03:23.176Z,100910.61
2022-08-26T07:08:33.888Z,100915.80
2022-08-26T07:13:56.231Z,100911.77
2022-08-26T07:19:11.214Z,100908.94
2022-08-26T07:24:19.663Z,100903.84
2022-08-26T07:29:31.997Z,100899.65
2022-08-26T07:34:44.409Z,100897.08
2022-08-26T07:39:55.310Z,100890.48
2022-08-26T07:45:05.588Z,100887.70
2022-08-26T07:50:13.569Z,100879.38
2022-08-26T07:55:25.599Z,100884.34
2022-08-26T08:00:43.066Z,100888.34
2022-08-26T08:05:50.729Z,100883.59
2022-08-26T08:11:01.773Z,100890.27
2022-08-26T08:16:12.554Z,100884.86
2022-08-26T08:21:23.515Z,100887.29
2022-08-26T08:26:35.587Z,100887.25
2022-08-26T08:32:00.012Z,100884.58
2022-08-26T08:37:10.959Z,100883.29
2022-08-26T08:42:34.722Z,100875.67
2022-08-26T08:47:47.053Z,100870.92
2022-08-26T08:53:05.172Z,100873.32
2022-08-26T08:58:21.326Z,100874.02
2022-08-26T09:04:02.645Z,100875.02
2022-08-26T09:09:39.322Z,100878.39
2022-08-26T09:15:03.741Z,100872.92
2022-08-26T09:20:26.757Z,100871.35
2022-08-26T09:25:34.518Z,100868.54
2022-08-26T09:30:42.169Z,100871.39
2022-08-26T09:35:55.277Z,100866.04
2022-08-26T09:41:20.437Z,100862.88
2022-08-26T09:46:37.120Z,100856.17
2022-08-26T09:51:44.885Z,100852.61
2022-08-26T09:57:20.916Z,100848.74
2022-08-26T10:02:47.848Z,100858.73
2022-08-26T10:08:01.658Z,100848.86
2022-08-26T10:13:17.053Z,100848.12
2022-08-26T10:18:34.255Z,100846.95
2022-08-26T10:24:35.405Z,100838.08
2022-08-26T10:29:48.393Z,100835.55
2022-08-26T10:34:59.010Z,100838.33
2022-08-26T10:40:20.196Z,100827.95
2022-08-26T10:45:38.570Z,100819.96
2022-08-26T10:50:48.799Z,100823.95
2022-08-26T10:56:02.732Z,100825.75
2022-08-26T11:01:40.746Z,100812.41
2022-08-26T11:07:26.617Z,100811.00
2022-08-26T11:12:58.262Z,100804.52
2022-08-26T11:18:40.097Z,100793.16
2022-08-26T11:23:52.892Z,100785.27
2022-08-26T11:29:03.091Z,100787.86
2022-08-26T11:34:16.122Z,100792.02
2022-08-26T11:39:30.226Z,100787.76
2022-08-26T11:44:49.408Z,100784.14
2022-08-26T11:50:12.148Z,100784.92
2022-08-26T11:55:20.896Z,100769.86
2022-08-26T12:00:36.641Z,100778.53
2022-08-26T12:05:50.852Z,100771.86
2022-08-26T12:12:43.361Z,100779.16
2022-08-26T12:17:34.873Z,100770.45
2022-08-26T12:23:06.413Z,100762.73
2022-08-26T12:28:39.383Z,100754.61
2022-08-26T12:34:04.577Z,100749.33
2022-08-26T12:39:29.450Z,100748.60
2022-08-26T12:44:54.349Z,100740.40
2022-08-26T12:50:08.756Z,100742.21
2022-08-26T12:55:41.497Z,100733.88
2022-08-26T13:00:56.803Z,100723.35
2022-08-26T13:06:30.117Z,100720.43
2022-08-26T13:11:59.852Z,100715.61
2022-08-26T13:17:10.514Z,100716.33
2022-08-26T13:22:23.199Z,100711.24
2022-08-26T13:27:30.860Z,100706.73
2022-08-26T13:32:38.799Z,100697.23
2022-08-26T13:37:48.832Z,100696.27
2022-08-26T13:42:56.422Z,100692.00
2022-08-26T13:48:05.016Z,100685.83
2022-08-26T13:53:15.961Z,100688.09
2022-08-26T13:58:33.208Z,100684.52
2022-08-26T14:04:03.091Z,100678.37
2022-08-26T14:09:11.470Z,100667.04
2022-08-26T14:14:23.407Z,100660.86
2022-08-26T14:19:32.117Z,100662.23
2022-08-26T14:24:42.218Z,100657.10
2022-08-26T14:29:52.448Z,100656.16
2022-08-26T14:35:12.256Z,100656.19
2022-08-26T14:40:24.810Z,100647.39
2022-08-26T14:45:32.367Z,100641.70
2022-08-26T14:50:43.214Z,100641.13
2022-08-26T14:55:50.836Z,100631.08
2022-08-26T15:01:04.563Z,100632.67
2022-08-26T15:06:16.698Z,100633.72
2022-08-26T15:11:27.702Z,100627.67
2022-08-26T15:16:36.187Z,100631.77
2022-08-26T15:21:45.709Z,100629.40
2022-08-26T15:26:56.782Z,100624.22
2022-08-26T15:32:04.911Z,100627.31
2022-08-26T15:37:12.934Z,100622.16
2022-08-26T15:42:21.177Z,100619.45
2022-08-26T15:47:28.888Z,100618.83
2022-08-26T15:52:42.542Z,100612.35
2022-08-26T15:57:50.276Z,100617.05
2022-08-26T16:02:57.774Z,100615.55
2022-08-26T16:08:11.278Z,100613.41
2022-08-26T16:13:22.198Z,100607.52
2022-08-26T16:18:39.276Z,100609.87
2022-08-26T16:23:54.382Z,100604.95
2022-08-26T16:29:02.241Z,100605.81
2022-08-26T16:34:10.023Z,100599.70
2022-08-26T16:39:26.312Z,100596.23
2022-08-26T16:44:44.647Z,100596.59
2022-08-26T16:49:54.376Z,100599.23
2022-08-26T16:55:12.831Z,100599.95
2022-08-26T17:00:38.260Z,100604.37
2022-08-26T17:05:44.763Z,100610.48
2022-08-26T17:11:02.302Z,100610.58
2022-08-26T17:16:27.137Z,100609.64
2022-08-26T17:21:38.489Z,100620.05
2022-08-26T17:27:11.900Z,100619.24
2022-08-26T17:32:20.096Z,100612.58
2022-08-26T17:37:29.462Z,100612.94
2022-08-26T17:42:38.053Z,100622.26
2022-08-26T17:47:57.783Z,100621.73
2022-08-26T17:53:05.350Z,100622.91
2022-08-26T17:58:14.600Z,100628.10
2022-08-26T18:03:24.616Z,100630.98
2022-08-26T18:08:32.764Z,100627.55
2022-08-26T18:13:47.120Z,100622.52
2022-08-26T18:18:58.884Z,100620.01
2022-08-26T18:24:13.986Z,100617.31
2022-08-26T18:29:22.606Z,100614.99
2022-08-26T18:34:31.794Z,100618.91
2022-08-26T18:39:39.644Z,100619.03
2022-08-26T18:44:48.683Z,100618.48
2022-08-26T18:49:56.520Z,100622.91
2022-08-26T18:55:08.287Z,100625.90
2022-08-26T19:00:18.474Z,100628.55
2022-08-26T19:05:26.762Z,100625.20
2022-08-26T19:17:22.659Z,100620.64
2022-08-26T19:23:32.013Z,100629.55
2022-08-26T19:35:06.908Z,100629.21
2022-08-26T19:41:55.022Z,100626.11
2022-08-26T19:47:24.641Z,100624.46
2022-08-26T19:52:43.646Z,100626.94
2022-08-26T19:58:25.071Z,100625.49
2022-08-26T20:03:58.174Z,100620.59
2022-08-26T20:16:03.748Z,100615.02
2022-08-26T20:21:36.478Z,100617.17
2022-08-26T20:27:52.607Z,100621.69
2022-08-26T20:48:18.624Z,100612.73
2022-08-26T20:53:43.438Z,100618.35
2022-08-26T20:59:18.041Z,100617.65
2022-08-26T21:05:20.151Z,100624.69
2022-08-26T21:18:03.122Z,100635.02
2022-08-26T21:24:20.880Z,100636.73
2022-08-26T21:30:00.489Z,100638.40
2022-08-26T21:36:38.698Z,100637.89
2022-08-26T21:42:23.721Z,100640.56
2022-08-26T21:49:21.680Z,100635.64
2022-08-26T21:55:15.752Z,100624.58
2022-08-26T22:01:04.832Z,100622.08
2022-08-26T22:07:30.929Z,100613.91
2022-08-26T22:13:13.435Z,100607.58
2022-08-26T22:19:01.434Z,100602.59
2022-08-26T22:24:32.857Z,100601.54
2022-08-26T22:30:34.123Z,100598.99
2022-08-26T22:35:54.361Z,100600.77
2022-08-26T22:41:27.020Z,100596.22
2022-08-26T22:47:33.171Z,100592.01
2022-08-26T22:52:58.436Z,100591.53
2022-08-26T22:58:46.650Z,100588.95
2022-08-26T23:04:29.807Z,100582.45
2022-08-26T23:10:15.882Z,100576.02
2022-08-26T23:15:48.316Z,100570.33
2022-08-26T23:21:51.851Z,100564.10
2022-08-26T23:33:03.358Z,100559.77
2022-08-26T23:38:31.416Z,100564.70
2022-08-26T23:44:06.120Z,100560.85
2022-08-26T23:49:51.006Z,100560.99
2022-08-26T23:55:24.710Z,100563.05
